Time;durP1;ratioP1;P1;durP2;ratioP2;P2;SDS_P1;SDS_P2;PMS_P1;PMS_P2;Temp;Humidity;BMP_temperature;BMP_pressure;BME280_temperature;BME280_humidity;BME280_pressure;Samples;Min_cycle;Max_cycle;Signal;HPM_P1;HPM_P2
2023/01/22 00:01:11;;;;;;;10.27;9.77;;;;;;;6.51;100.00;92603.81;5090301;28;20228;-78
2023/01/22 00:03:38;;;;;;;11.13;10.47;;;;;;;6.44;100.00;92615.47;5091718;28;20177;-77
2023/01/22 00:06:04;;;;;;;10.77;10.07;;;;;;;6.39;100.00;92625.78;5091122;28;20231;-78
2023/01/22 00:08:30;;;;;;;11.77;10.83;;;;;;;6.43;100.00;92626.84;5088611;28;20188;-78
2023/01/22 00:10:55;;;;;;;11.33;10.53;;;;;;;6.36;100.00;92627.09;5089770;28;20232;-78
2023/01/22 00:13:22;;;;;;;12.17;11.37;;;;;;;6.25;100.00;92635.06;5089902;28;20180;-75
2023/01/22 00:15:48;;;;;;;13.07;12.17;;;;;;;6.32;100.00;92625.22;5090433;28;20281;-77
2023/01/22 00:18:13;;;;;;;12.17;10.97;;;;;;;6.27;100.00;92622.63;5089100;28;20216;-77
2023/01/22 00:20:39;;;;;;;11.20;10.60;;;;;;;6.11;100.00;92623.56;5089877;28;20256;-77
2023/01/22 00:23:05;;;;;;;11.27;10.30;;;;;;;6.14;100.00;92608.31;5092709;28;20209;-78
2023/01/22 00:25:30;;;;;;;11.00;10.30;;;;;;;6.22;100.00;92628.56;5088740;28;20231;-76
2023/01/22 00:27:56;;;;;;;13.90;12.80;;;;;;;6.35;100.00;92611.78;5090911;28;20213;-77
2023/01/22 00:30:21;;;;;;;11.50;10.67;;;;;;;6.42;100.00;92622.69;5090425;28;20225;-77
2023/01/22 00:32:47;;;;;;;14.27;13.20;;;;;;;6.20;100.00;92611.69;5090085;28;20193;-77
2023/01/22 00:35:12;;;;;;;10.13;9.63;;;;;;;6.14;100.00;92607.53;5089173;28;20296;-78
2023/01/22 00:37:37;;;;;;;11.47;10.70;;;;;;;6.02;100.00;92604.34;5092582;28;20188;-78
2023/01/22 00:40:04;;;;;;;10.87;10.07;;;;;;;6.29;100.00;92626.53;5090403;28;20236;-77
2023/01/22 00:42:29;;;;;;;9.90;9.27;;;;;;;6.22;100.00;92632.97;5092450;28;20215;-78
2023/01/22 00:44:54;;;;;;;9.67;9.17;;;;;;;6.15;100.00;92624.63;5089581;28;20212;-78
2023/01/22 00:47:20;;;;;;;9.67;9.27;;;;;;;6.15;100.00;92629.81;5089538;28;20836;-77
2023/01/22 00:49:45;;;;;;;10.30;9.80;;;;;;;6.01;100.00;92631.28;5087978;28;20266;-78
2023/01/22 00:52:10;;;;;;;10.20;9.70;;;;;;;6.01;100.00;92631.28;5088717;28;20221;-78
2023/01/22 00:54:36;;;;;;;9.00;8.50;;;;;;;5.95;100.00;92633.06;5089624;28;20251;-77
2023/01/22 00:57:01;;;;;;;9.40;9.00;;;;;;;5.91;100.00;92637.19;5089621;28;20177;-77
2023/01/22 00:59:28;;;;;;;9.57;9.10;;;;;;;5.94;100.00;92641.09;5090553;28;20242;-78
2023/01/22 01:01:53;;;;;;;8.93;8.53;;;;;;;5.99;100.00;92646.31;5089798;28;20231;-78
2023/01/22 01:04:18;;;;;;;9.10;8.60;;;;;;;5.92;100.00;92650.91;5088311;28;20228;-78
2023/01/22 01:06:44;;;;;;;9.60;9.07;;;;;;;6.04;100.00;92661.88;5089447;28;20172;-77
2023/01/22 01:09:09;;;;;;;10.43;9.70;;;;;;;6.00;100.00;92669.38;5089586;28;20243;-77
2023/01/22 01:11:35;;;;;;;11.10;10.23;;;;;;;6.02;100.00;92658.75;5090130;28;20208;-80
2023/01/22 01:14:01;;;;;;;10.83;10.03;;;;;;;5.89;100.00;92659.19;5089055;28;20196;-79
2023/01/22 01:16:28;;;;;;;11.77;11.07;;;;;;;5.72;100.00;92635.19;5089248;28;20173;-79
2023/01/22 01:19:02;;;;;;;12.03;11.23;;;;;;;5.87;100.00;92661.22;5089286;28;20219;-77
2023/01/22 01:21:28;;;;;;;10.67;9.87;;;;;;;5.88;100.00;92671.34;5090158;28;20240;-79
2023/01/22 01:23:55;;;;;;;10.47;9.77;;;;;;;6.02;100.00;92667.31;5089658;28;20259;-79
2023/01/22 01:26:21;;;;;;;9.57;8.97;;;;;;;5.96;100.00;92672.72;5090081;28;20181;-79
2023/01/22 01:28:46;;;;;;;10.73;9.77;;;;;;;5.96;100.00;92673.47;5087666;28;20187;-79
2023/01/22 01:31:14;;;;;;;10.57;9.77;;;;;;;5.94;100.00;92670.38;5089018;28;20260;-78
2023/01/22 01:33:41;;;;;;;8.93;8.47;;;;;;;6.01;100.00;92683.88;5090077;28;20192;-79
2023/01/22 01:36:18;;;;;;;10.17;9.50;;;;;;;5.98;100.00;92683.59;5089697;28;20255;-78
2023/01/22 01:38:43;;;;;;;9.00;8.57;;;;;;;5.92;100.00;92682.00;5089298;28;20185;-77
2023/01/22 01:41:12;;;;;;;9.60;9.20;;;;;;;5.81;100.00;92691.47;5090749;28;20247;-77
2023/01/22 01:43:38;;;;;;;9.77;9.27;;;;;;;5.80;100.00;92691.72;5090438;28;20200;-78
2023/01/22 01:46:10;;;;;;;9.57;9.17;;;;;;;5.74;100.00;92692.72;5088640;28;20205;-78
2023/01/22 01:48:45;;;;;;;9.37;8.97;;;;;;;5.78;100.00;92698.97;5089405;28;20193;-79
2023/01/22 01:51:16;;;;;;;9.50;9.00;;;;;;;5.80;100.00;92695.09;5089465;28;20227;-79
2023/01/22 01:53:43;;;;;;;8.90;8.53;;;;;;;5.81;100.00;92691.47;5088971;28;20197;-78
2023/01/22 01:56:12;;;;;;;8.47;8.07;;;;;;;5.70;100.00;92689.03;5088734;28;20215;-79
2023/01/22 01:58:41;;;;;;;9.40;8.93;;;;;;;5.66;100.00;92675.03;5122579;28;20196;-78
2023/01/22 02:01:14;;;;;;;10.23;9.63;;;;;;;5.73;100.00;92691.13;5103717;28;20229;-79
2023/01/22 02:03:40;;;;;;;9.50;8.83;;;;;;;5.69;100.00;92690.88;5091082;28;20188;-78
2023/01/22 02:06:10;;;;;;;8.83;8.43;;;;;;;5.60;100.00;92689.75;5093194;28;20231;-79
2023/01/22 02:08:36;;;;;;;9.77;9.27;;;;;;;5.68;100.00;92691.13;5093710;28;20192;-78
2023/01/22 02:11:02;;;;;;;9.07;8.57;;;;;;;5.67;100.00;92689.53;5094085;28;20224;-79
2023/01/22 02:13:31;;;;;;;8.67;8.17;;;;;;;5.55;100.00;92666.41;5093371;28;20200;-79
2023/01/22 02:15:56;;;;;;;8.10;7.80;;;;;;;5.60;100.00;92678.63;5091544;28;20217;-77
2023/01/22 02:18:21;;;;;;;8.53;8.13;;;;;;;5.70;100.00;92695.00;5092887;28;20192;-79
2023/01/22 02:20:56;;;;;;;8.07;7.77;;;;;;;5.80;100.00;92694.31;5092979;28;20282;-79
2023/01/22 02:23:22;;;;;;;8.60;8.30;;;;;;;5.84;100.00;92690.22;5092629;28;20180;-79
2023/01/22 02:25:48;;;;;;;9.23;8.83;;;;;;;5.75;100.00;92691.69;5093515;28;20227;-78
2023/01/22 02:28:13;;;;;;;8.53;8.13;;;;;;;5.70;100.00;92679.47;5125971;27;20185;-79
2023/01/22 02:30:39;;;;;;;9.37;9.07;;;;;;;5.79;100.00;92700.53;5091708;28;20232;-78
2023/01/22 02:33:04;;;;;;;8.83;8.33;;;;;;;5.76;100.00;92699.19;5093226;28;20242;-78
2023/01/22 02:35:30;;;;;;;8.23;7.93;;;;;;;5.61;100.00;92695.69;5092465;28;20228;-78
2023/01/22 02:37:55;;;;;;;8.10;7.80;;;;;;;5.65;100.00;92694.19;5092466;28;20223;-78
2023/01/22 02:40:20;;;;;;;8.87;8.57;;;;;;;5.45;100.00;92699.97;5090514;28;20212;-78
2023/01/22 02:42:46;;;;;;;8.70;8.37;;;;;;;5.34;100.00;92693.13;5092667;28;20200;-78
2023/01/22 02:45:11;;;;;;;9.00;8.60;;;;;;;5.40;100.00;92693.97;5092475;28;20260;-77
2023/01/22 02:47:37;;;;;;;9.40;9.00;;;;;;;5.38;100.00;92691.63;5093875;28;20191;-78
2023/01/22 02:50:03;;;;;;;9.00;8.60;;;;;;;5.29;100.00;92702.66;5092458;28;20217;-78
2023/01/22 02:52:28;;;;;;;8.50;8.17;;;;;;;5.22;100.00;92702.84;5091809;28;20250;-78
2023/01/22 02:54:54;;;;;;;9.57;9.17;;;;;;;5.21;100.00;92709.06;5093044;28;20220;-79
2023/01/22 02:57:19;;;;;;;8.37;7.97;;;;;;;5.28;100.00;92701.06;5092103;28;20179;-79
2023/01/22 02:59:44;;;;;;;9.50;9.10;;;;;;;5.45;100.00;92712.91;5092038;28;20231;-78
2023/01/22 03:02:10;;;;;;;9.83;9.23;;;;;;;5.40;100.00;92694.72;5094721;28;20197;-78
2023/01/22 03:04:35;;;;;;;9.50;9.00;;;;;;;5.54;100.00;92711.44;5092601;28;20292;-79
2023/01/22 03:07:00;;;;;;;8.83;8.33;;;;;;;5.42;100.00;92692.69;5092034;28;20192;-78
2023/01/22 03:09:26;;;;;;;8.83;8.53;;;;;;;5.41;100.00;92691.13;5090420;28;20221;-78
2023/01/22 03:11:52;;;;;;;9.10;8.70;;;;;;;5.36;100.00;92698.84;5092304;28;20270;-79
2023/01/22 03:22:29;;;;;;;7.80;7.50;;;;;;;5.09;100.00;92703.22;5092620;28;20223;-79
2023/01/22 03:24:57;;;;;;;8.57;8.17;;;;;;;5.12;100.00;92717.50;5089919;28;20220;-78
2023/01/22 03:27:25;;;;;;;8.93;8.53;;;;;;;5.11;100.00;92723.66;5091119;28;20203;-77
2023/01/22 03:29:50;;;;;;;9.23;8.83;;;;;;;4.96;100.00;92725.06;5090855;28;20314;-78
2023/01/22 03:32:17;;;;;;;8.13;7.80;;;;;;;4.97;100.00;92718.09;5091277;28;20185;-78
2023/01/22 03:34:42;;;;;;;10.13;9.50;;;;;;;5.00;100.00;92719.44;5091272;28;20246;-77
2023/01/22 03:37:11;;;;;;;9.23;8.63;;;;;;;4.92;100.00;92723.19;5090120;28;20192;-78
2023/01/22 03:39:36;;;;;;;10.17;9.23;;;;;;;4.96;100.00;92725.06;5090738;28;20292;-78
2023/01/22 03:42:02;;;;;;;9.23;8.73;;;;;;;4.94;100.00;92727.13;5090998;28;20222;-78
2023/01/22 03:44:27;;;;;;;9.57;9.17;;;;;;;4.95;100.00;92723.50;5091281;28;20236;-77
2023/01/22 03:46:53;;;;;;;10.13;9.63;;;;;;;4.88;100.00;92722.94;5091521;28;20209;-78
2023/01/22 03:49:18;;;;;;;11.00;10.17;;;;;;;4.88;100.00;92719.53;5090438;28;20231;-78
2023/01/22 03:51:44;;;;;;;9.93;9.27;;;;;;;4.93;100.00;92699.69;5091618;28;20292;-79
2023/01/22 03:54:13;;;;;;;9.30;8.80;;;;;;;4.92;100.00;92713.66;5090369;28;20303;-78
2023/01/22 03:56:40;;;;;;;8.43;7.90;;;;;;;5.01;100.00;92720.97;5091066;28;20195;-77
2023/01/22 03:59:07;;;;;;;10.40;9.60;;;;;;;4.97;100.00;92726.66;5090640;28;20234;-79
2023/01/22 04:01:33;;;;;;;10.73;9.93;;;;;;;4.98;100.00;92732.59;5105980;28;21127;-79
2023/01/22 04:03:58;;;;;;;10.50;10.00;;;;;;;4.91;100.00;92732.78;5090127;28;20254;-82
2023/01/22 04:06:24;;;;;;;9.90;9.30;;;;;;;4.87;100.00;92733.50;5091757;28;20232;-78
2023/01/22 04:08:51;;;;;;;10.77;10.13;;;;;;;4.83;100.00;92735.00;5090909;28;20189;-74
2023/01/22 04:11:17;;;;;;;10.63;9.77;;;;;;;4.82;100.00;92733.44;5090323;28;20189;-79
2023/01/22 04:13:43;;;;;;;9.87;9.37;;;;;;;4.73;100.00;92733.06;5090640;28;20212;-77
2023/01/22 04:16:10;;;;;;;9.57;9.17;;;;;;;4.68;100.00;92735.59;5089595;28;20213;-78
2023/01/22 04:18:36;;;;;;;9.67;9.17;;;;;;;4.62;100.00;92733.97;5090847;28;20184;-78
2023/01/22 04:21:02;;;;;;;9.83;9.33;;;;;;;4.58;100.00;92738.06;5091210;28;20248;-78
2023/01/22 04:23:27;;;;;;;9.27;8.47;;;;;;;4.53;100.00;92732.00;5090112;28;20177;-79
2023/01/22 04:25:52;;;;;;;9.57;9.10;;;;;;;4.63;100.00;92734.75;5091149;28;20284;-78
2023/01/22 04:28:18;;;;;;;9.73;9.23;;;;;;;4.66;100.00;92744.59;5090826;28;20246;-77
2023/01/22 04:30:46;;;;;;;9.30;8.53;;;;;;;4.62;100.00;92749.47;5090430;28;20220;-78
2023/01/22 04:33:12;;;;;;;10.03;9.63;;;;;;;4.61;100.00;92740.16;5090270;28;20200;-79
2023/01/22 04:35:38;;;;;;;8.80;8.40;;;;;;;4.60;100.00;92761.06;5089303;28;20253;-73
2023/01/22 04:38:05;;;;;;;9.23;8.83;;;;;;;4.67;100.00;92754.72;5122940;28;20200;-74
2023/01/22 04:40:30;;;;;;;9.03;8.70;;;;;;;4.53;100.00;92760.44;5088457;28;20285;-74
2023/01/22 04:43:03;;;;;;;8.90;8.50;;;;;;;4.59;100.00;92760.28;5091452;28;20222;-75
2023/01/22 04:45:29;;;;;;;9.00;8.43;;;;;;;4.58;100.00;92758.72;5104826;28;20212;-74
2023/01/22 04:47:55;;;;;;;8.63;8.13;;;;;;;4.48;100.00;92761.16;5089783;28;20203;-75
2023/01/22 04:50:22;;;;;;;9.40;9.00;;;;;;;4.49;100.00;92765.34;5122167;28;20252;-75
2023/01/22 04:52:51;;;;;;;9.37;8.80;;;;;;;4.49;100.00;92774.88;5089294;28;20224;-75
2023/01/22 04:55:17;;;;;;;9.27;8.67;;;;;;;4.53;100.00;92761.25;5089181;28;20216;-75
2023/01/22 04:57:43;;;;;;;8.83;8.50;;;;;;;4.42;100.00;92769.88;5106431;28;20249;-75
2023/01/22 05:00:10;;;;;;;8.03;7.73;;;;;;;4.46;100.00;92776.16;5089290;28;20225;-75
2023/01/22 05:02:36;;;;;;;9.10;8.67;;;;;;;4.41;100.00;92773.50;5088454;28;20235;-74
2023/01/22 05:05:01;;;;;;;9.47;8.97;;;;;;;4.50;100.00;92782.41;5089846;28;20233;-74
2023/01/22 05:07:26;;;;;;;9.40;9.00;;;;;;;4.44;100.00;92780.75;5088309;28;20191;-74
2023/01/22 05:09:52;;;;;;;9.43;9.03;;;;;;;4.37;100.00;92771.63;5089358;28;20215;-74
2023/01/22 05:12:17;;;;;;;9.20;8.80;;;;;;;4.31;100.00;92775.16;5089525;28;20205;-74
2023/01/22 05:14:43;;;;;;;9.37;8.97;;;;;;;4.41;100.00;92789.00;5088473;28;20256;-74
2023/01/22 05:17:08;;;;;;;9.33;8.93;;;;;;;4.34;100.00;92790.94;5090070;28;20215;-75
2023/01/22 05:19:34;;;;;;;9.27;8.87;;;;;;;4.41;100.00;92788.19;5091202;28;20233;-74
2023/01/22 05:22:00;;;;;;;9.60;9.10;;;;;;;4.43;100.00;92807.63;5121977;28;20220;-74
2023/01/22 05:24:25;;;;;;;9.83;9.37;;;;;;;4.49;100.00;92801.53;5089043;28;20235;-74
2023/01/22 05:26:50;;;;;;;11.27;10.33;;;;;;;4.61;100.00;92809.97;5089237;28;20240;-74
2023/01/22 05:29:16;;;;;;;13.67;11.37;;;;;;;4.57;100.00;92816.63;5089995;28;20269;-75
2023/01/22 05:31:41;;;;;;;12.20;11.00;;;;;;;4.59;100.00;92817.16;5088272;28;20204;-74
2023/01/22 05:34:06;;;;;;;11.07;10.33;;;;;;;4.64;100.00;92819.03;5088927;28;20189;-74
2023/01/22 05:36:32;;;;;;;11.17;10.37;;;;;;;4.65;100.00;92826.56;5089686;28;20218;-75
2023/01/22 05:38:57;;;;;;;9.97;9.33;;;;;;;4.41;100.00;92816.63;5088042;28;20185;-80
2023/01/22 05:41:23;;;;;;;10.50;9.77;;;;;;;4.01;100.00;92767.72;5090046;28;20211;-76
2023/01/22 05:43:48;;;;;;;9.77;9.27;;;;;;;4.49;100.00;92836.91;5090407;28;20219;-74
2023/01/22 05:46:13;;;;;;;10.57;10.07;;;;;;;4.55;100.00;92846.31;5090072;28;20255;-80
2023/01/22 05:48:39;;;;;;;9.83;9.33;;;;;;;4.53;100.00;92838.78;5089857;28;20173;-77
2023/01/22 05:51:06;;;;;;;10.27;9.57;;;;;;;4.70;100.00;92859.47;5087272;28;20235;-78
2023/01/22 05:53:33;;;;;;;11.60;10.60;;;;;;;4.64;100.00;92861.19;5089173;28;20203;-78
2023/01/22 05:56:03;;;;;;;10.37;9.57;;;;;;;4.58;100.00;92862.13;5088577;28;20216;-81
2023/01/22 05:58:29;;;;;;;9.53;9.03;;;;;;;4.75;100.00;92868.09;5091638;28;20189;-77
2023/01/22 06:00:56;;;;;;;10.40;9.73;;;;;;;4.75;100.00;92875.03;5088187;28;20240;-78
2023/01/22 06:03:21;;;;;;;11.63;10.67;;;;;;;4.69;100.00;92876.00;5089019;28;20208;-79
2023/01/22 06:05:55;;;;;;;16.27;10.67;;;;;;;4.52;100.00;92868.25;5089452;28;20220;-78
2023/01/22 06:08:20;;;;;;;11.60;10.43;;;;;;;4.24;100.00;92845.06;5089331;28;20185;-78
2023/01/22 06:10:46;;;;;;;13.83;11.03;;;;;;;4.49;100.00;92889.41;5088582;28;20218;-78
2023/01/22 06:13:11;;;;;;;12.83;11.33;;;;;;;4.41;100.00;92900.13;5088278;28;20185;-80
2023/01/22 06:15:36;;;;;;;15.67;11.27;;;;;;;4.22;100.00;92896.19;5083811;28;20225;-78
2023/01/22 06:18:03;;;;;;;10.37;9.77;;;;;;;4.30;100.00;92900.97;5086593;28;20200;-78
2023/01/22 06:20:28;;;;;;;10.40;9.60;;;;;;;4.38;100.00;92908.34;5087281;28;20216;-79
2023/01/22 06:22:54;;;;;;;11.10;10.40;;;;;;;4.41;100.00;92914.84;5087171;28;20834;-77
2023/01/22 06:25:19;;;;;;;12.40;11.37;;;;;;;4.39;100.00;92909.91;5088183;28;20299;-77
2023/01/22 06:27:45;;;;;;;12.37;11.37;;;;;;;4.53;100.00;92916.34;5086218;28;20682;-78
2023/01/22 06:30:10;;;;;;;11.70;10.90;;;;;;;4.54;100.00;92912.75;5086738;28;20224;-79
2023/01/22 06:32:36;;;;;;;11.60;10.90;;;;;;;4.61;100.00;92918.53;5087643;28;20193;-80
2023/01/22 06:35:01;;;;;;;11.47;10.87;;;;;;;4.55;100.00;92919.50;5087628;28;20235;-79
2023/01/22 06:37:26;;;;;;;11.10;10.40;;;;;;;4.51;100.00;92915.03;5087655;28;20191;-80
2023/01/22 06:39:52;;;;;;;10.90;10.23;;;;;;;4.63;100.00;92919.09;5085796;28;20224;-80
2023/01/22 06:42:17;;;;;;;12.40;11.57;;;;;;;4.76;100.00;92918.78;5086290;28;21393;-77
2023/01/22 06:44:42;;;;;;;10.30;9.70;;;;;;;4.64;100.00;92907.72;5087078;28;20213;-77
2023/01/22 06:47:08;;;;;;;11.63;10.83;;;;;;;4.81;100.00;92925.81;5086920;28;20197;-76
2023/01/22 06:49:33;;;;;;;11.60;10.80;;;;;;;4.75;100.00;92932.72;5088501;28;20224;-77
2023/01/22 06:51:58;;;;;;;10.43;9.83;;;;;;;4.53;100.00;92916.34;5092480;28;20236;-78
2023/01/22 06:54:24;;;;;;;11.77;10.73;;;;;;;4.63;100.00;92939.78;5089713;28;20228;-77
2023/01/22 06:56:49;;;;;;;10.87;10.10;;;;;;;4.65;100.00;92945.50;5091558;28;20216;-77
2023/01/22 06:59:14;;;;;;;10.93;10.33;;;;;;;4.71;100.00;92960.09;5090111;28;20302;-77
2023/01/22 07:01:40;;;;;;;12.03;11.23;;;;;;;4.70;100.00;92944.81;5089837;28;20214;-79
2023/01/22 07:04:06;;;;;;;13.43;12.13;;;;;;;4.94;100.00;92962.53;5090001;28;20208;-78
2023/01/22 07:06:31;;;;;;;15.00;13.70;;;;;;;4.85;100.00;92945.84;5091277;28;20193;-78
2023/01/22 07:08:56;;;;;;;13.97;12.73;;;;;;;5.06;100.00;92962.44;5087980;28;20218;-78
2023/01/22 07:11:22;;;;;;;14.50;12.50;;;;;;;5.17;100.00;92965.97;5090756;28;20199;-79
2023/01/22 07:13:47;;;;;;;14.73;12.93;;;;;;;5.16;100.00;92941.09;5088153;28;20204;-79
2023/01/22 07:16:12;;;;;;;15.83;13.00;;;;;;;5.42;100.00;92963.72;5090195;28;20225;-78
2023/01/22 07:18:38;;;;;;;15.87;13.13;;;;;;;5.38;100.00;92950.50;5090986;28;20234;-75
2023/01/22 07:21:04;;;;;;;13.23;12.03;;;;;;;5.42;100.00;92955.94;5090815;28;20236;-72
2023/01/22 07:23:30;;;;;;;14.10;12.90;;;;;;;5.57;100.00;92969.88;5088360;28;20188;-71
2023/01/22 07:25:55;;;;;;;13.07;11.97;;;;;;;5.47;100.00;92966.38;5087364;28;20228;-73
2023/01/22 07:28:21;;;;;;;13.77;12.63;;;;;;;5.66;100.00;92972.84;5091073;28;20220;-74
2023/01/22 07:30:46;;;;;;;14.20;12.80;;;;;;;5.71;100.00;92978.09;5090660;28;20228;-75
2023/01/22 07:33:12;;;;;;;14.33;13.03;;;;;;;5.83;100.00;92976.22;5090005;28;20216;-75
2023/01/22 07:35:38;;;;;;;15.90;13.93;;;;;;;5.85;100.00;92971.59;5089552;28;20242;-74
2023/01/22 07:38:04;;;;;;;14.10;12.67;;;;;;;5.97;100.00;92982.59;5089244;28;20189;-75
2023/01/22 07:40:30;;;;;;;13.23;12.10;;;;;;;6.05;100.00;92982.19;5088263;28;20620;-79
2023/01/22 07:42:55;;;;;;;13.83;12.60;;;;;;;6.15;100.00;92992.66;5090311;28;20197;-77
2023/01/22 07:45:23;;;;;;;14.93;13.63;;;;;;;6.29;100.00;92993.84;5089639;28;20252;-75
2023/01/22 07:47:54;;;;;;;13.73;12.63;;;;;;;6.53;100.00;92988.19;5090717;28;20189;-74
2023/01/22 07:50:24;;;;;;;14.53;13.23;;;;;;;6.93;100.00;92992.16;5090336;28;20387;-74
2023/01/22 07:52:50;;;;;;;13.20;12.20;;;;;;;7.27;100.00;92986.47;5087769;28;20281;-72
2023/01/22 07:55:16;;;;;;;15.83;13.20;;;;;;;7.33;100.00;92979.50;5088389;28;20221;-72
2023/01/22 07:57:42;;;;;;;14.10;12.83;;;;;;;7.50;100.00;92980.91;5089761;28;20280;-74
2023/01/22 08:00:11;;;;;;;15.17;13.57;;;;;;;7.75;100.00;92988.09;5087889;28;20228;-74
2023/01/22 08:02:38;;;;;;;13.40;12.30;;;;;;;7.86;100.00;92992.31;5085926;28;20185;-74
2023/01/22 08:05:05;;;;;;;12.87;11.80;;;;;;;7.81;100.00;92974.84;5086782;28;20236;-72
2023/01/22 08:07:31;;;;;;;13.37;12.27;;;;;;;7.86;100.00;92990.47;5085561;28;20181;-74
2023/01/22 08:09:56;;;;;;;11.67;10.67;;;;;;;7.76;100.00;92985.25;5088085;28;20233;-75
2023/01/22 08:12:23;;;;;;;12.60;11.70;;;;;;;8.14;98.27;92991.91;5089260;28;20188;-74
2023/01/22 08:14:48;;;;;;;11.70;10.90;;;;;;;8.02;98.02;92986.94;5089332;28;20228;-75
2023/01/22 08:17:14;;;;;;;11.00;10.30;;;;;;;8.09;97.37;93000.47;5088269;28;20222;-74
2023/01/22 08:19:39;;;;;;;10.63;10.03;;;;;;;7.83;98.12;92998.78;5088520;28;20228;-75
2023/01/22 08:22:05;;;;;;;11.97;11.17;;;;;;;7.88;97.50;93011.81;5087935;28;20224;-74
2023/01/22 08:24:30;;;;;;;12.53;11.53;;;;;;;8.11;96.16;92995.81;5086796;28;20231;-74
2023/01/22 08:26:56;;;;;;;11.57;10.97;;;;;;;8.43;96.46;93013.13;5088262;28;20210;-75
2023/01/22 08:29:22;;;;;;;9.53;9.03;;;;;;;8.66;94.46;93016.06;5089216;28;20236;-76
2023/01/22 08:31:47;;;;;;;12.47;11.37;;;;;;;8.97;92.46;93022.09;5086972;28;20188;-75
2023/01/22 08:34:13;;;;;;;12.23;11.33;;;;;;;9.19;91.26;93026.06;5087907;28;20224;-74
2023/01/22 08:36:38;;;;;;;10.40;9.80;;;;;;;9.27;91.54;93014.31;5089176;28;20199;-76
2023/01/22 08:39:03;;;;;;;12.33;11.40;;;;;;;9.33;91.13;93016.69;5103395;28;20197;-77
2023/01/22 08:41:29;;;;;;;13.80;12.60;;;;;;;9.04;91.33;93001.81;5088516;28;20224;-76
2023/01/22 08:43:54;;;;;;;15.63;14.03;;;;;;;9.04;93.18;93022.66;5087276;28;20219;-76
2023/01/22 08:46:20;;;;;;;14.10;12.83;;;;;;;8.92;93.98;92994.25;5088370;28;20270;-76
2023/01/22 08:48:46;;;;;;;17.30;15.50;;;;;;;9.01;93.99;93013.50;5089304;28;20246;-77
2023/01/22 08:51:11;;;;;;;19.33;16.97;;;;;;;9.05;94.88;93024.19;5088361;28;20303;-76
2023/01/22 08:53:37;;;;;;;18.17;16.23;;;;;;;8.87;96.42;93024.69;5088620;28;20181;-76
2023/01/22 08:56:02;;;;;;;20.50;17.20;;;;;;;8.86;96.56;93015.31;5088195;28;20277;-76
2023/01/22 08:58:28;;;;;;;18.90;17.00;;;;;;;8.79;96.81;93012.19;5089084;28;20193;-76
2023/01/22 09:00:54;;;;;;;19.40;16.70;;;;;;;8.72;97.67;93015.03;5087393;28;20733;-74
2023/01/22 09:03:21;;;;;;;25.80;18.73;;;;;;;8.99;97.24;93022.63;5086876;28;20189;-74
2023/01/22 09:05:46;;;;;;;22.73;19.67;;;;;;;8.81;97.97;93012.72;5087114;28;20232;-76
2023/01/22 09:08:12;;;;;;;25.23;19.43;;;;;;;8.86;97.77;93026.50;5089604;28;20923;-76
2023/01/22 09:10:37;;;;;;;22.50;19.23;;;;;;;8.87;98.45;93024.69;5086548;28;20233;-75
2023/01/22 09:13:03;;;;;;;27.13;20.20;;;;;;;8.98;97.46;93014.03;5087889;28;20216;-74
2023/01/22 09:15:28;;;;;;;20.37;18.10;;;;;;;8.97;97.18;93022.09;5087195;28;20223;-80
2023/01/22 09:17:54;;;;;;;22.80;17.90;;;;;;;8.98;98.98;93029.66;5089585;28;20196;-75
2023/01/22 09:20:19;;;;;;;19.27;17.17;;;;;;;9.11;98.16;93028.38;5086728;28;20227;-75
2023/01/22 09:22:45;;;;;;;20.10;17.00;;;;;;;9.15;97.53;93024.22;5089045;28;20210;-76
2023/01/22 09:25:11;;;;;;;20.17;17.80;;;;;;;9.12;96.99;93014.31;5086319;28;20300;-75
2023/01/22 09:27:36;;;;;;;20.47;16.87;;;;;;;9.18;95.42;93021.09;5089696;28;20181;-74
2023/01/22 09:30:02;;;;;;;17.83;15.93;;;;;;;9.24;95.75;93028.66;5087942;28;20239;-76
2023/01/22 09:32:28;;;;;;;17.70;15.87;;;;;;;9.15;94.83;93017.19;5088124;28;20183;-76
2023/01/22 09:34:53;;;;;;;18.07;16.10;;;;;;;9.29;94.62;93031.25;5088324;28;20225;-72
2023/01/22 09:37:19;;;;;;;17.90;15.87;;;;;;;9.25;94.54;93019.00;5088864;28;20190;-71
2023/01/22 09:39:48;;;;;;;16.97;15.20;;;;;;;9.45;95.38;93025.00;5087843;28;20288;-74
2023/01/22 09:42:20;;;;;;;20.10;17.30;;;;;;;9.62;94.13;93029.94;5087709;28;20245;-76
2023/01/22 09:44:50;;;;;;;17.27;15.30;;;;;;;9.67;95.14;93019.53;5088354;28;20228;-76
2023/01/22 09:47:30;;;;;;;20.60;16.50;;;;;;;9.96;93.45;93030.19;5085669;28;20185;-76
2023/01/22 09:50:25;;;;;;;15.23;13.73;;;;;;;9.88;91.19;93031.50;5087208;28;20248;-74
2023/01/22 09:52:52;;;;;;;14.53;13.00;;;;;;;10.07;89.41;93032.50;5087091;28;20197;-74
2023/01/22 09:55:21;;;;;;;13.00;11.73;;;;;;;10.02;87.76;93023.91;5087767;28;20220;-74
2023/01/22 09:57:49;;;;;;;12.70;11.70;;;;;;;10.12;87.24;93035.13;5085833;28;20190;-73
2023/01/22 10:00:15;;;;;;;13.07;12.07;;;;;;;10.25;86.31;93028.56;5086109;28;20254;-74
2023/01/22 10:03:04;;;;;;;12.00;11.10;;;;;;;10.26;86.75;93030.13;5088100;28;20192;-76
2023/01/22 10:05:43;;;;;;;11.40;10.43;;;;;;;10.15;86.32;93034.59;5087061;28;20260;-75
2023/01/22 10:08:24;;;;;;;10.53;9.93;;;;;;;9.91;85.57;93022.34;5087213;28;21196;-72
2023/01/22 10:10:50;;;;;;;10.07;9.47;;;;;;;9.93;84.65;93021.03;5087519;28;20220;-75
2023/01/22 10:13:34;;;;;;;10.67;10.07;;;;;;;10.37;83.49;93022.00;5087790;28;20173;-73
2023/01/22 10:16:00;;;;;;;10.37;9.73;;;;;;;10.67;81.15;93023.72;5086536;28;20232;-74
2023/01/22 10:18:51;;;;;;;11.30;10.53;;;;;;;10.88;79.84;93033.78;5088674;28;20241;-73
2023/01/22 10:21:32;;;;;;;11.53;10.90;;;;;;;10.90;79.43;93021.25;5066646;28;20229;-73
2023/01/22 10:23:58;;;;;;;10.27;9.53;;;;;;;10.95;78.54;93026.44;5070277;28;20204;-74
2023/01/22 10:27:15;;;;;;;10.10;9.43;;;;;;;11.21;76.99;93027.06;5090964;28;20582;-74
2023/01/22 10:29:44;;;;;;;10.83;10.20;;;;;;;11.23;76.92;93020.53;5010114;28;20303;-74
2023/01/22 10:32:22;;;;;;;13.73;12.30;;;;;;;11.06;77.90;93020.09;5009089;28;21300;-73
2023/01/22 10:34:59;;;;;;;14.57;13.07;;;;;;;11.01;79.13;93027.97;5058331;28;20240;-73
2023/01/22 10:37:25;;;;;;;13.07;11.87;;;;;;;10.93;79.67;93025.91;5089555;28;20185;-74
2023/01/22 10:39:58;;;;;;;12.63;11.80;;;;;;;10.93;80.93;93025.13;5091598;28;20285;-74
2023/01/22 10:42:27;;;;;;;13.57;12.20;;;;;;;11.15;81.45;93033.38;5090905;28;20205;-74
2023/01/22 10:45:08;;;;;;;14.30;13.10;;;;;;;10.89;82.04;93019.69;5090604;28;20298;-74
2023/01/22 10:47:33;;;;;;;12.37;11.17;;;;;;;11.02;81.42;93026.91;5092213;28;20192;-78
2023/01/22 10:50:14;;;;;;;12.37;11.37;;;;;;;10.94;81.25;93024.84;5091014;28;20221;-79
2023/01/22 10:52:44;;;;;;;12.90;11.80;;;;;;;10.81;82.81;93025.47;5093710;28;20224;-78
2023/01/22 10:55:24;;;;;;;12.87;11.87;;;;;;;10.62;83.79;93021.91;5090655;28;20234;-76
2023/01/22 10:58:15;;;;;;;13.77;12.50;;;;;;;10.66;83.75;93025.53;5091047;28;20240;-78
2023/01/22 11:00:41;;;;;;;12.63;11.53;;;;;;;10.62;84.39;93026.34;5090414;28;20323;-77
2023/01/22 11:03:18;;;;;;;12.50;11.47;;;;;;;10.57;83.90;93024.53;5091829;28;20185;-80
2023/01/22 11:05:46;;;;;;;11.80;10.97;;;;;;;10.00;86.17;93011.13;5090482;28;20224;-80
2023/01/22 11:08:16;;;;;;;12.60;11.50;;;;;;;9.93;87.47;93026.25;5089579;28;20218;-83
2023/01/22 11:10:53;;;;;;;12.23;11.03;;;;;;;9.99;87.63;93030.44;5087015;28;20236;-85
2023/01/22 11:13:24;;;;;;;12.23;11.33;;;;;;;10.04;88.05;93033.00;5088646;28;20212;-78
2023/01/22 11:16:09;;;;;;;12.50;11.60;;;;;;;9.64;89.20;93012.22;5090743;28;20297;-86
2023/01/22 11:18:38;;;;;;;11.60;10.80;;;;;;;9.61;89.42;93015.38;5089837;28;20199;-75
2023/01/22 11:21:21;;;;;;;10.93;10.13;;;;;;;9.85;89.07;93026.03;5089573;28;20224;-75
2023/01/22 11:24:10;;;;;;;10.70;9.83;;;;;;;9.84;87.81;93027.84;5090725;28;20197;-74
2023/01/22 11:26:55;;;;;;;11.33;10.40;;;;;;;9.66;88.21;93020.56;5090140;28;20236;-74
2023/01/22 11:29:31;;;;;;;10.53;9.73;;;;;;;9.85;88.40;93033.84;5088911;28;20228;-74
2023/01/22 11:32:06;;;;;;;12.00;11.20;;;;;;;9.86;87.57;93023.16;5090091;28;20181;-74
2023/01/22 11:35:04;;;;;;;11.70;10.77;;;;;;;9.99;87.10;93020.00;5087842;28;20263;-76